sensor_id;sensor_type;location;lat;lon;timestamp;temperature;humidity
72126;SHT31;59999;51.676;22.650;2023-07-30T00:00:16;19.32;82.96
72126;SHT31;59999;51.676;22.650;2023-07-30T00:03:02;19.13;84.61
72126;SHT31;59999;51.676;22.650;2023-07-30T00:05:28;18.95;85.59
72126;SHT31;59999;51.676;22.650;2023-07-30T00:07:54;18.75;86.36
72126;SHT31;59999;51.676;22.650;2023-07-30T00:10:20;18.59;87.18
72126;SHT31;59999;51.676;22.650;2023-07-30T00:12:46;18.44;87.56
72126;SHT31;59999;51.676;22.650;2023-07-30T00:15:12;18.32;88.28
72126;SHT31;59999;51.676;22.650;2023-07-30T00:17:39;18.25;88.81
72126;SHT31;59999;51.676;22.650;2023-07-30T00:20:07;18.21;89.25
72126;SHT31;59999;51.676;22.650;2023-07-30T00:22:32;18.14;89.58
72126;SHT31;59999;51.676;22.650;2023-07-30T00:24:59;18.08;89.88
72126;SHT31;59999;51.676;22.650;2023-07-30T00:27:24;18.04;90.09
72126;SHT31;59999;51.676;22.650;2023-07-30T00:29:50;17.96;90.13
72126;SHT31;59999;51.676;22.650;2023-07-30T00:32:16;17.91;90.22
72126;SHT31;59999;51.676;22.650;2023-07-30T00:34:43;17.84;90.39
72126;SHT31;59999;51.676;22.650;2023-07-30T00:37:09;17.79;90.40
72126;SHT31;59999;51.676;22.650;2023-07-30T00:39:35;17.72;90.53
72126;SHT31;59999;51.676;22.650;2023-07-30T00:42:01;17.69;90.75
72126;SHT31;59999;51.676;22.650;2023-07-30T00:44:27;17.67;90.98
72126;SHT31;59999;51.676;22.650;2023-07-30T00:46:53;17.63;91.09
72126;SHT31;59999;51.676;22.650;2023-07-30T00:49:19;17.53;90.80
72126;SHT31;59999;51.676;22.650;2023-07-30T00:51:45;17.49;90.83
72126;SHT31;59999;51.676;22.650;2023-07-30T00:54:11;17.45;90.98
72126;SHT31;59999;51.676;22.650;2023-07-30T00:56:37;17.38;91.13
72126;SHT31;59999;51.676;22.650;2023-07-30T00:59:05;17.35;91.47
72126;SHT31;59999;51.676;22.650;2023-07-30T01:01:33;17.35;91.62
72126;SHT31;59999;51.676;22.650;2023-07-30T01:04:01;17.34;91.75
72126;SHT31;59999;51.676;22.650;2023-07-30T01:06:27;17.34;91.72
72126;SHT31;59999;51.676;22.650;2023-07-30T01:08:53;17.28;91.64
72126;SHT31;59999;51.676;22.650;2023-07-30T01:11:19;17.24;91.65
72126;SHT31;59999;51.676;22.650;2023-07-30T01:13:46;17.24;91.73
72126;SHT31;59999;51.676;22.650;2023-07-30T01:16:12;17.19;91.77
72126;SHT31;59999;51.676;22.650;2023-07-30T01:18:38;17.18;91.88
72126;SHT31;59999;51.676;22.650;2023-07-30T01:21:04;17.17;91.96
72126;SHT31;59999;51.676;22.650;2023-07-30T01:23:30;17.18;92.03
72126;SHT31;59999;51.676;22.650;2023-07-30T01:26:30;17.17;92.04
72126;SHT31;59999;51.676;22.650;2023-07-30T01:29:00;17.11;92.03
72126;SHT31;59999;51.676;22.650;2023-07-30T01:31:27;17.10;91.94
72126;SHT31;59999;51.676;22.650;2023-07-30T01:33:55;17.10;91.92
72126;SHT31;59999;51.676;22.650;2023-07-30T01:36:21;17.05;91.93
72126;SHT31;59999;51.676;22.650;2023-07-30T01:38:49;17.01;91.97
72126;SHT31;59999;51.676;22.650;2023-07-30T01:41:15;17.01;92.03
72126;SHT31;59999;51.676;22.650;2023-07-30T01:43:42;16.97;92.06
72126;SHT31;59999;51.676;22.650;2023-07-30T01:46:07;16.97;92.05
72126;SHT31;59999;51.676;22.650;2023-07-30T01:48:33;16.92;91.92
72126;SHT31;59999;51.676;22.650;2023-07-30T01:50:59;16.88;91.85
72126;SHT31;59999;51.676;22.650;2023-07-30T01:53:25;16.83;91.75
72126;SHT31;59999;51.676;22.650;2023-07-30T01:55:51;16.78;92.12
72126;SHT31;59999;51.676;22.650;2023-07-30T01:58:17;16.80;92.34
72126;SHT31;59999;51.676;22.650;2023-07-30T02:00:44;16.77;92.48
72126;SHT31;59999;51.676;22.650;2023-07-30T02:03:11;16.78;92.59
72126;SHT31;59999;51.676;22.650;2023-07-30T02:05:37;16.78;92.53
72126;SHT31;59999;51.676;22.650;2023-07-30T02:08:03;16.76;92.60
72126;SHT31;59999;51.676;22.650;2023-07-30T02:10:29;16.80;92.75
72126;SHT31;59999;51.676;22.650;2023-07-30T02:12:55;16.77;92.85
72126;SHT31;59999;51.676;22.650;2023-07-30T02:15:20;16.78;92.82
72126;SHT31;59999;51.676;22.650;2023-07-30T02:17:46;16.83;92.93
72126;SHT31;59999;51.676;22.650;2023-07-30T02:20:12;16.85;93.13
72126;SHT31;59999;51.676;22.650;2023-07-30T02:22:38;16.89;93.30
72126;SHT31;59999;51.676;22.650;2023-07-30T02:25:04;16.94;93.40
72126;SHT31;59999;51.676;22.650;2023-07-30T02:27:30;17.01;93.56
72126;SHT31;59999;51.676;22.650;2023-07-30T02:29:56;17.07;93.58
72126;SHT31;59999;51.676;22.650;2023-07-30T02:32:22;17.11;93.64
72126;SHT31;59999;51.676;22.650;2023-07-30T02:34:48;17.17;93.64
72126;SHT31;59999;51.676;22.650;2023-07-30T02:37:14;17.24;93.60
72126;SHT31;59999;51.676;22.650;2023-07-30T02:39:40;17.29;93.58
72126;SHT31;59999;51.676;22.650;2023-07-30T02:42:06;17.34;93.55
72126;SHT31;59999;51.676;22.650;2023-07-30T02:44:32;17.36;93.40
72126;SHT31;59999;51.676;22.650;2023-07-30T02:46:58;17.42;93.29
72126;SHT31;59999;51.676;22.650;2023-07-30T02:49:24;17.45;93.13
72126;SHT31;59999;51.676;22.650;2023-07-30T02:51:50;17.46;93.10
72126;SHT31;59999;51.676;22.650;2023-07-30T02:54:16;17.46;93.05
72126;SHT31;59999;51.676;22.650;2023-07-30T02:56:43;17.45;93.04
72126;SHT31;59999;51.676;22.650;2023-07-30T02:59:08;17.50;93.00
72126;SHT31;59999;51.676;22.650;2023-07-30T03:01:34;17.52;92.96
72126;SHT31;59999;51.676;22.650;2023-07-30T03:04:01;17.55;92.93
72126;SHT31;59999;51.676;22.650;2023-07-30T03:06:27;17.56;92.74
72126;SHT31;59999;51.676;22.650;2023-07-30T03:08:53;17.56;92.66
72126;SHT31;59999;51.676;22.650;2023-07-30T03:11:19;17.53;92.65
72126;SHT31;59999;51.676;22.650;2023-07-30T03:13:45;17.52;92.66
72126;SHT31;59999;51.676;22.650;2023-07-30T03:16:11;17.52;92.63
72126;SHT31;59999;51.676;22.650;2023-07-30T03:18:36;17.55;92.67
72126;SHT31;59999;51.676;22.650;2023-07-30T03:21:02;17.52;92.62
72126;SHT31;59999;51.676;22.650;2023-07-30T03:23:29;17.50;92.60
72126;SHT31;59999;51.676;22.650;2023-07-30T03:25:55;17.55;92.58
72126;SHT31;59999;51.676;22.650;2023-07-30T03:28:21;17.52;92.60
72126;SHT31;59999;51.676;22.650;2023-07-30T03:30:47;17.47;92.64
72126;SHT31;59999;51.676;22.650;2023-07-30T03:33:12;17.49;92.67
72126;SHT31;59999;51.676;22.650;2023-07-30T03:35:38;17.43;92.71
72126;SHT31;59999;51.676;22.650;2023-07-30T03:38:04;17.43;92.74
72126;SHT31;59999;51.676;22.650;2023-07-30T03:40:30;17.39;92.74
72126;SHT31;59999;51.676;22.650;2023-07-30T03:42:56;17.38;92.78
72126;SHT31;59999;51.676;22.650;2023-07-30T03:45:22;17.36;92.78
72126;SHT31;59999;51.676;22.650;2023-07-30T03:47:48;17.36;92.76
72126;SHT31;59999;51.676;22.650;2023-07-30T03:50:14;17.32;92.78
72126;SHT31;59999;51.676;22.650;2023-07-30T03:52:40;17.29;92.76
72126;SHT31;59999;51.676;22.650;2023-07-30T03:55:06;17.32;92.92
72126;SHT31;59999;51.676;22.650;2023-07-30T03:57:32;17.31;92.96
72126;SHT31;59999;51.676;22.650;2023-07-30T03:59:58;17.35;93.07
72126;SHT31;59999;51.676;22.650;2023-07-30T04:02:24;17.36;93.16
72126;SHT31;59999;51.676;22.650;2023-07-30T04:04:50;17.36;93.24
72126;SHT31;59999;51.676;22.650;2023-07-30T04:07:16;17.43;93.20
72126;SHT31;59999;51.676;22.650;2023-07-30T04:09:42;17.49;93.17
72126;SHT31;59999;51.676;22.650;2023-07-30T04:12:08;17.50;93.15
72126;SHT31;59999;51.676;22.650;2023-07-30T04:14:34;17.59;93.08
72126;SHT31;59999;51.676;22.650;2023-07-30T04:16:59;17.62;92.99
72126;SHT31;59999;51.676;22.650;2023-07-30T04:19:25;17.70;92.92
72126;SHT31;59999;51.676;22.650;2023-07-30T04:21:51;17.77;92.43
72126;SHT31;59999;51.676;22.650;2023-07-30T04:24:17;17.84;91.95
72126;SHT31;59999;51.676;22.650;2023-07-30T04:26:43;17.93;91.30
72126;SHT31;59999;51.676;22.650;2023-07-30T04:29:09;18.00;90.86
72126;SHT31;59999;51.676;22.650;2023-07-30T04:31:36;18.08;90.77
72126;SHT31;59999;51.676;22.650;2023-07-30T04:34:02;18.11;90.11
72126;SHT31;59999;51.676;22.650;2023-07-30T04:36:27;18.20;89.40
72126;SHT31;59999;51.676;22.650;2023-07-30T04:38:54;18.20;89.26
72126;SHT31;59999;51.676;22.650;2023-07-30T04:41:20;18.28;89.58
72126;SHT31;59999;51.676;22.650;2023-07-30T04:43:46;18.31;88.93
72126;SHT31;59999;51.676;22.650;2023-07-30T04:46:15;18.44;89.05
72126;SHT31;59999;51.676;22.650;2023-07-30T04:48:41;18.49;89.13
72126;SHT31;59999;51.676;22.650;2023-07-30T04:51:06;18.56;88.87
72126;SHT31;59999;51.676;22.650;2023-07-30T04:53:32;18.63;88.49
72126;SHT31;59999;51.676;22.650;2023-07-30T04:55:58;18.75;87.52
72126;SHT31;59999;51.676;22.650;2023-07-30T04:58:27;18.82;87.67
72126;SHT31;59999;51.676;22.650;2023-07-30T05:00:53;18.90;87.55
72126;SHT31;59999;51.676;22.650;2023-07-30T05:03:19;18.96;87.49
72126;SHT31;59999;51.676;22.650;2023-07-30T05:05:45;18.99;87.27
72126;SHT31;59999;51.676;22.650;2023-07-30T05:08:14;19.11;87.19
72126;SHT31;59999;51.676;22.650;2023-07-30T05:10:39;19.11;86.60
72126;SHT31;59999;51.676;22.650;2023-07-30T05:13:06;19.19;86.52
72126;SHT31;59999;51.676;22.650;2023-07-30T05:15:32;19.27;86.73
72126;SHT31;59999;51.676;22.650;2023-07-30T05:17:58;19.41;86.13
72126;SHT31;59999;51.676;22.650;2023-07-30T05:20:23;19.44;85.24
72126;SHT31;59999;51.676;22.650;2023-07-30T05:22:50;19.46;85.11
72126;SHT31;59999;51.676;22.650;2023-07-30T05:25:15;19.54;84.96
72126;SHT31;59999;51.676;22.650;2023-07-30T05:27:41;19.48;84.21
72126;SHT31;59999;51.676;22.650;2023-07-30T05:30:08;19.48;84.59
72126;SHT31;59999;51.676;22.650;2023-07-30T05:32:34;19.48;84.88
72126;SHT31;59999;51.676;22.650;2023-07-30T05:35:00;19.48;84.42
72126;SHT31;59999;51.676;22.650;2023-07-30T05:37:26;19.46;84.25
72126;SHT31;59999;51.676;22.650;2023-07-30T05:39:51;19.34;83.94
72126;SHT31;59999;51.676;22.650;2023-07-30T05:42:18;19.35;84.74
72126;SHT31;59999;51.676;22.650;2023-07-30T05:44:43;19.37;84.61
72126;SHT31;59999;51.676;22.650;2023-07-30T05:47:09;19.32;84.80
72126;SHT31;59999;51.676;22.650;2023-07-30T05:49:35;19.41;84.72
72126;SHT31;59999;51.676;22.650;2023-07-30T05:52:01;19.44;85.06
72126;SHT31;59999;51.676;22.650;2023-07-30T05:54:27;19.46;84.17
72126;SHT31;59999;51.676;22.650;2023-07-30T05:56:53;19.53;83.92
72126;SHT31;59999;51.676;22.650;2023-07-30T05:59:20;19.58;83.51
72126;SHT31;59999;51.676;22.650;2023-07-30T06:01:46;19.62;83.33
72126;SHT31;59999;51.676;22.650;2023-07-30T06:04:11;19.74;83.50
72126;SHT31;59999;51.676;22.650;2023-07-30T06:06:37;19.86;82.93
72126;SHT31;59999;51.676;22.650;2023-07-30T06:09:03;19.85;83.04
72126;SHT31;59999;51.676;22.650;2023-07-30T06:11:29;19.89;82.68
72126;SHT31;59999;51.676;22.650;2023-07-30T06:13:55;19.86;81.97
72126;SHT31;59999;51.676;22.650;2023-07-30T06:16:21;19.75;80.83
72126;SHT31;59999;51.676;22.650;2023-07-30T06:18:47;19.71;81.52
72126;SHT31;59999;51.676;22.650;2023-07-30T06:21:13;19.71;81.51
72126;SHT31;59999;51.676;22.650;2023-07-30T06:23:39;19.67;81.17
72126;SHT31;59999;51.676;22.650;2023-07-30T06:26:05;19.61;80.72
72126;SHT31;59999;51.676;22.650;2023-07-30T06:28:31;19.61;80.73
72126;SHT31;59999;51.676;22.650;2023-07-30T06:31:01;19.69;81.49
72126;SHT31;59999;51.676;22.650;2023-07-30T06:33:27;19.77;80.54
72126;SHT31;59999;51.676;22.650;2023-07-30T06:35:53;19.89;81.03
72126;SHT31;59999;51.676;22.650;2023-07-30T06:38:19;19.96;80.80
72126;SHT31;59999;51.676;22.650;2023-07-30T06:40:45;20.05;80.65
72126;SHT31;59999;51.676;22.650;2023-07-30T06:43:11;19.96;80.10
72126;SHT31;59999;51.676;22.650;2023-07-30T06:45:37;19.92;80.76
72126;SHT31;59999;51.676;22.650;2023-07-30T06:48:03;19.86;80.77
72126;SHT31;59999;51.676;22.650;2023-07-30T06:50:29;19.75;81.13
72126;SHT31;59999;51.676;22.650;2023-07-30T06:52:55;19.71;81.30
72126;SHT31;59999;51.676;22.650;2023-07-30T06:55:21;19.75;81.44
72126;SHT31;59999;51.676;22.650;2023-07-30T06:57:46;19.81;81.79
72126;SHT31;59999;51.676;22.650;2023-07-30T07:00:13;19.82;80.98
72126;SHT31;59999;51.676;22.650;2023-07-30T07:02:44;19.85;81.14
72126;SHT31;59999;51.676;22.650;2023-07-30T07:05:10;19.82;80.51
72126;SHT31;59999;51.676;22.650;2023-07-30T07:07:36;19.78;80.54
72126;SHT31;59999;51.676;22.650;2023-07-30T07:10:02;19.77;80.75
72126;SHT31;59999;51.676;22.650;2023-07-30T07:12:28;19.74;80.41
72126;SHT31;59999;51.676;22.650;2023-07-30T07:14:54;19.72;80.52
72126;SHT31;59999;51.676;22.650;2023-07-30T07:17:24;19.75;80.79
72126;SHT31;59999;51.676;22.650;2023-07-30T07:19:50;19.75;80.73
72126;SHT31;59999;51.676;22.650;2023-07-30T07:22:16;19.81;80.40
72126;SHT31;59999;51.676;22.650;2023-07-30T07:24:44;19.81;80.53
72126;SHT31;59999;51.676;22.650;2023-07-30T07:27:10;19.85;80.36
72126;SHT31;59999;51.676;22.650;2023-07-30T07:29:37;19.86;80.71
72126;SHT31;59999;51.676;22.650;2023-07-30T07:32:03;19.86;80.99
72126;SHT31;59999;51.676;22.650;2023-07-30T07:34:29;19.86;80.60
72126;SHT31;59999;51.676;22.650;2023-07-30T07:36:55;19.90;80.52
72126;SHT31;59999;51.676;22.650;2023-07-30T07:39:21;19.99;80.79
72126;SHT31;59999;51.676;22.650;2023-07-30T07:41:47;20.13;79.73
72126;SHT31;59999;51.676;22.650;2023-07-30T07:44:13;20.22;78.85
72126;SHT31;59999;51.676;22.650;2023-07-30T07:46:39;20.22;78.60
72126;SHT31;59999;51.676;22.650;2023-07-30T07:49:05;20.25;78.84
72126;SHT31;59999;51.676;22.650;2023-07-30T07:51:32;20.27;78.88
72126;SHT31;59999;51.676;22.650;2023-07-30T07:53:58;20.32;78.43
72126;SHT31;59999;51.676;22.650;2023-07-30T07:56:24;20.33;78.57
72126;SHT31;59999;51.676;22.650;2023-07-30T07:58:50;20.37;78.85
72126;SHT31;59999;51.676;22.650;2023-07-30T08:01:15;20.47;78.41
72126;SHT31;59999;51.676;22.650;2023-07-30T08:03:41;20.67;78.30
72126;SHT31;59999;51.676;22.650;2023-07-30T08:06:07;20.81;77.87
72126;SHT31;59999;51.676;22.650;2023-07-30T08:08:33;20.96;76.17
72126;SHT31;59999;51.676;22.650;2023-07-30T08:11:05;21.02;75.00
72126;SHT31;59999;51.676;22.650;2023-07-30T08:13:31;21.04;75.39
72126;SHT31;59999;51.676;22.650;2023-07-30T08:15:57;21.19;74.90
72126;SHT31;59999;51.676;22.650;2023-07-30T08:18:23;21.33;75.50
72126;SHT31;59999;51.676;22.650;2023-07-30T08:20:49;21.46;74.31
72126;SHT31;59999;51.676;22.650;2023-07-30T08:23:16;21.56;74.65
72126;SHT31;59999;51.676;22.650;2023-07-30T08:25:41;21.64;72.43
72126;SHT31;59999;51.676;22.650;2023-07-30T08:28:07;21.81;72.83
72126;SHT31;59999;51.676;22.650;2023-07-30T08:30:33;21.93;72.95
72126;SHT31;59999;51.676;22.650;2023-07-30T08:32:59;21.91;71.45
72126;SHT31;59999;51.676;22.650;2023-07-30T08:35:25;21.91;72.44
72126;SHT31;59999;51.676;22.650;2023-07-30T08:37:53;21.94;70.40
72126;SHT31;59999;51.676;22.650;2023-07-30T08:40:21;22.05;70.70
72126;SHT31;59999;51.676;22.650;2023-07-30T08:42:50;22.20;69.38
72126;SHT31;59999;51.676;22.650;2023-07-30T08:45:17;22.44;68.27
72126;SHT31;59999;51.676;22.650;2023-07-30T08:47:46;22.66;67.66
72126;SHT31;59999;51.676;22.650;2023-07-30T08:50:12;22.83;68.10
72126;SHT31;59999;51.676;22.650;2023-07-30T08:52:38;22.89;66.40
72126;SHT31;59999;51.676;22.650;2023-07-30T08:55:05;22.97;66.35
72126;SHT31;59999;51.676;22.650;2023-07-30T08:57:32;23.06;65.87
72126;SHT31;59999;51.676;22.650;2023-07-30T09:00:08;22.92;65.47
72126;SHT31;59999;51.676;22.650;2023-07-30T09:02:43;22.80;64.09
72126;SHT31;59999;51.676;22.650;2023-07-30T09:05:10;22.56;64.44
72126;SHT31;59999;51.676;22.650;2023-07-30T09:07:36;22.62;64.54
72126;SHT31;59999;51.676;22.650;2023-07-30T09:10:02;22.77;63.05
72126;SHT31;59999;51.676;22.650;2023-07-30T09:12:32;23.11;64.13
72126;SHT31;59999;51.676;22.650;2023-07-30T09:14:58;23.31;65.50
72126;SHT31;59999;51.676;22.650;2023-07-30T09:17:25;23.23;63.30
72126;SHT31;59999;51.676;22.650;2023-07-30T09:19:52;23.00;64.78
72126;SHT31;59999;51.676;22.650;2023-07-30T09:22:28;22.83;65.70
72126;SHT31;59999;51.676;22.650;2023-07-30T09:24:56;22.87;66.56
72126;SHT31;59999;51.676;22.650;2023-07-30T09:27:24;22.92;62.52
72126;SHT31;59999;51.676;22.650;2023-07-30T09:30:01;22.96;62.28
72126;SHT31;59999;51.676;22.650;2023-07-30T09:32:30;23.20;63.02
72126;SHT31;59999;51.676;22.650;2023-07-30T09:35:06;23.41;63.97
72126;SHT31;59999;51.676;22.650;2023-07-30T09:37:37;23.30;63.19
72126;SHT31;59999;51.676;22.650;2023-07-30T09:40:08;23.45;65.11
72126;SHT31;59999;51.676;22.650;2023-07-30T09:42:35;23.44;64.03
72126;SHT31;59999;51.676;22.650;2023-07-30T09:45:03;23.64;63.95
72126;SHT31;59999;51.676;22.650;2023-07-30T09:47:30;23.76;60.27
72126;SHT31;59999;51.676;22.650;2023-07-30T09:49:56;23.81;61.72
72126;SHT31;59999;51.676;22.650;2023-07-30T09:52:22;23.81;60.07
72126;SHT31;59999;51.676;22.650;2023-07-30T09:54:52;23.98;60.65
72126;SHT31;59999;51.676;22.650;2023-07-30T09:57:18;24.26;59.97
72126;SHT31;59999;51.676;22.650;2023-07-30T09:59:44;24.50;57.97
72126;SHT31;59999;51.676;22.650;2023-07-30T10:02:11;24.36;59.58
72126;SHT31;59999;51.676;22.650;2023-07-30T10:04:43;24.23;59.99
72126;SHT31;59999;51.676;22.650;2023-07-30T10:07:13;24.01;61.09
72126;SHT31;59999;51.676;22.650;2023-07-30T10:09:42;23.96;62.04
72126;SHT31;59999;51.676;22.650;2023-07-30T10:12:16;24.14;57.92
72126;SHT31;59999;51.676;22.650;2023-07-30T10:14:43;24.40;58.28
72126;SHT31;59999;51.676;22.650;2023-07-30T10:17:10;24.56;56.86
72126;SHT31;59999;51.676;22.650;2023-07-30T10:19:37;24.75;55.64
72126;SHT31;59999;51.676;22.650;2023-07-30T10:24:38;25.04;56.46
72126;SHT31;59999;51.676;22.650;2023-07-30T10:27:08;24.98;54.29
72126;SHT31;59999;51.676;22.650;2023-07-30T10:29:40;25.18;56.27
72126;SHT31;59999;51.676;22.650;2023-07-30T10:32:07;25.28;56.56
72126;SHT31;59999;51.676;22.650;2023-07-30T10:34:47;25.02;53.37
72126;SHT31;59999;51.676;22.650;2023-07-30T10:37:20;24.51;55.17
72126;SHT31;59999;51.676;22.650;2023-07-30T10:39:49;24.47;55.86
72126;SHT31;59999;51.676;22.650;2023-07-30T10:42:16;24.43;53.85
72126;SHT31;59999;51.676;22.650;2023-07-30T10:44:44;24.37;54.01
72126;SHT31;59999;51.676;22.650;2023-07-30T10:47:11;24.63;54.87
72126;SHT31;59999;51.676;22.650;2023-07-30T10:49:38;24.71;54.08
72126;SHT31;59999;51.676;22.650;2023-07-30T10:52:04;24.80;54.64
72126;SHT31;59999;51.676;22.650;2023-07-30T10:54:33;25.09;54.30
72126;SHT31;59999;51.676;22.650;2023-07-30T10:57:00;25.29;54.62
72126;SHT31;59999;51.676;22.650;2023-07-30T10:59:26;25.40;54.74
72126;SHT31;59999;51.676;22.650;2023-07-30T11:01:58;25.46;53.94
72126;SHT31;59999;51.676;22.650;2023-07-30T11:04:24;25.74;55.36
72126;SHT31;59999;51.676;22.650;2023-07-30T11:06:51;25.73;53.91
72126;SHT31;59999;51.676;22.650;2023-07-30T11:09:24;25.77;53.24
72126;SHT31;59999;51.676;22.650;2023-07-30T11:11:52;26.02;53.68
72126;SHT31;59999;51.676;22.650;2023-07-30T11:14:20;26.07;52.60
72126;SHT31;59999;51.676;22.650;2023-07-30T11:16:51;26.24;52.00
72126;SHT31;59999;51.676;22.650;2023-07-30T11:19:17;26.21;51.96
72126;SHT31;59999;51.676;22.650;2023-07-30T11:21:51;26.26;52.61
72126;SHT31;59999;51.676;22.650;2023-07-30T11:24:17;26.11;52.44
72126;SHT31;59999;51.676;22.650;2023-07-30T11:26:44;26.00;51.67
72126;SHT31;59999;51.676;22.650;2023-07-30T11:29:19;25.93;52.75
72126;SHT31;59999;51.676;22.650;2023-07-30T11:31:46;26.17;53.52
72126;SHT31;59999;51.676;22.650;2023-07-30T11:34:13;26.26;51.54
72126;SHT31;59999;51.676;22.650;2023-07-30T11:36:40;26.42;49.78
72126;SHT31;59999;51.676;22.650;2023-07-30T11:39:08;26.59;49.41
72126;SHT31;59999;51.676;22.650;2023-07-30T11:41:35;26.71;49.43
72126;SHT31;59999;51.676;22.650;2023-07-30T11:44:01;26.62;50.51
72126;SHT31;59999;51.676;22.650;2023-07-30T11:46:27;26.46;50.34
72126;SHT31;59999;51.676;22.650;2023-07-30T11:49:11;26.51;50.90
72126;SHT31;59999;51.676;22.650;2023-07-30T11:51:38;26.56;50.68
72126;SHT31;59999;51.676;22.650;2023-07-30T11:54:04;26.71;51.17
72126;SHT31;59999;51.676;22.650;2023-07-30T11:56:33;26.75;47.41
72126;SHT31;59999;51.676;22.650;2023-07-30T11:59:02;26.82;48.18
72126;SHT31;59999;51.676;22.650;2023-07-30T12:01:31;26.89;48.03
72126;SHT31;59999;51.676;22.650;2023-07-30T12:04:01;26.90;46.81
72126;SHT31;59999;51.676;22.650;2023-07-30T12:07:00;26.96;47.91
72126;SHT31;59999;51.676;22.650;2023-07-30T12:09:35;27.20;46.94
72126;SHT31;59999;51.676;22.650;2023-07-30T12:12:01;27.24;44.91
72126;SHT31;59999;51.676;22.650;2023-07-30T12:17:11;27.07;45.25
72126;SHT31;59999;51.676;22.650;2023-07-30T12:19:37;26.83;46.70
72126;SHT31;59999;51.676;22.650;2023-07-30T12:22:03;26.73;47.57
72126;SHT31;59999;51.676;22.650;2023-07-30T12:24:29;26.83;47.81
72126;SHT31;59999;51.676;22.650;2023-07-30T12:26:55;26.89;47.98
72126;SHT31;59999;51.676;22.650;2023-07-30T12:29:21;26.94;47.79
72126;SHT31;59999;51.676;22.650;2023-07-30T12:31:48;27.17;48.02
72126;SHT31;59999;51.676;22.650;2023-07-30T12:34:15;27.40;46.68
72126;SHT31;59999;51.676;22.650;2023-07-30T12:36:41;27.29;45.81
72126;SHT31;59999;51.676;22.650;2023-07-30T12:39:07;27.13;45.70
72126;SHT31;59999;51.676;22.650;2023-07-30T12:41:36;27.13;45.59
72126;SHT31;59999;51.676;22.650;2023-07-30T12:44:02;27.26;47.29
72126;SHT31;59999;51.676;22.650;2023-07-30T12:46:30;27.06;45.22
72126;SHT31;59999;51.676;22.650;2023-07-30T12:48:58;27.17;45.99
72126;SHT31;59999;51.676;22.650;2023-07-30T12:51:31;27.34;46.26
72126;SHT31;59999;51.676;22.650;2023-07-30T12:53:57;27.30;46.63
72126;SHT31;59999;51.676;22.650;2023-07-30T12:56:23;27.27;45.92
72126;SHT31;59999;51.676;22.650;2023-07-30T12:58:48;27.45;45.33
72126;SHT31;59999;51.676;22.650;2023-07-30T13:01:14;27.58;46.59
72126;SHT31;59999;51.676;22.650;2023-07-30T13:03:40;27.66;43.59
72126;SHT31;59999;51.676;22.650;2023-07-30T13:06:11;27.78;43.76
72126;SHT31;59999;51.676;22.650;2023-07-30T13:08:40;27.75;44.52
72126;SHT31;59999;51.676;22.650;2023-07-30T13:11:06;27.92;46.21
72126;SHT31;59999;51.676;22.650;2023-07-30T13:13:32;27.65;45.06
72126;SHT31;59999;51.676;22.650;2023-07-30T13:15:58;27.57;45.44
72126;SHT31;59999;51.676;22.650;2023-07-30T13:18:27;27.48;45.28
72126;SHT31;59999;51.676;22.650;2023-07-30T13:20:53;27.44;44.84
72126;SHT31;59999;51.676;22.650;2023-07-30T13:23:19;27.45;45.65
72126;SHT31;59999;51.676;22.650;2023-07-30T13:25:45;27.35;46.13
72126;SHT31;59999;51.676;22.650;2023-07-30T13:28:20;27.41;45.80
72126;SHT31;59999;51.676;22.650;2023-07-30T13:30:46;27.29;43.97
72126;SHT31;59999;51.676;22.650;2023-07-30T13:33:12;27.20;44.38
72126;SHT31;59999;51.676;22.650;2023-07-30T13:35:38;27.00;44.24
72126;SHT31;59999;51.676;22.650;2023-07-30T13:38:04;27.00;46.99
72126;SHT31;59999;51.676;22.650;2023-07-30T13:40:30;27.06;46.97
72126;SHT31;59999;51.676;22.650;2023-07-30T13:42:55;27.14;46.67
72126;SHT31;59999;51.676;22.650;2023-07-30T13:45:22;27.23;45.61
72126;SHT31;59999;51.676;22.650;2023-07-30T13:47:48;27.21;47.13
72126;SHT31;59999;51.676;22.650;2023-07-30T13:50:15;27.27;47.26
72126;SHT31;59999;51.676;22.650;2023-07-30T13:52:41;27.29;44.30
72126;SHT31;59999;51.676;22.650;2023-07-30T13:55:07;27.26;45.46
72126;SHT31;59999;51.676;22.650;2023-07-30T13:57:33;27.21;45.49
72126;SHT31;59999;51.676;22.650;2023-07-30T13:59:59;27.26;45.15
72126;SHT31;59999;51.676;22.650;2023-07-30T14:02:25;27.20;45.27
72126;SHT31;59999;51.676;22.650;2023-07-30T14:04:51;27.35;46.55
72126;SHT31;59999;51.676;22.650;2023-07-30T14:07:17;27.62;44.18
72126;SHT31;59999;51.676;22.650;2023-07-30T14:09:43;27.81;44.95
72126;SHT31;59999;51.676;22.650;2023-07-30T14:12:09;28.13;44.63
72126;SHT31;59999;51.676;22.650;2023-07-30T14:14:36;28.41;43.25
72126;SHT31;59999;51.676;22.650;2023-07-30T14:17:02;28.53;42.95
72126;SHT31;59999;51.676;22.650;2023-07-30T14:19:32;28.56;43.20
72126;SHT31;59999;51.676;22.650;2023-07-30T14:21:58;28.58;43.57
72126;SHT31;59999;51.676;22.650;2023-07-30T14:24:24;28.69;41.82
72126;SHT31;59999;51.676;22.650;2023-07-30T14:26:50;28.60;42.59
72126;SHT31;59999;51.676;22.650;2023-07-30T14:29:16;28.44;43.47
72126;SHT31;59999;51.676;22.650;2023-07-30T14:31:42;28.05;43.47
72126;SHT31;59999;51.676;22.650;2023-07-30T14:34:08;27.59;45.64
72126;SHT31;59999;51.676;22.650;2023-07-30T14:36:34;27.17;45.84
72126;SHT31;59999;51.676;22.650;2023-07-30T14:39:00;26.71;46.44
72126;SHT31;59999;51.676;22.650;2023-07-30T14:41:26;26.46;47.92
72126;SHT31;59999;51.676;22.650;2023-07-30T14:43:52;26.15;48.86
72126;SHT31;59999;51.676;22.650;2023-07-30T14:46:18;26.04;50.20
72126;SHT31;59999;51.676;22.650;2023-07-30T14:48:44;26.08;49.90
72126;SHT31;59999;51.676;22.650;2023-07-30T14:51:10;25.98;49.18
72126;SHT31;59999;51.676;22.650;2023-07-30T14:53:36;25.93;50.33
72126;SHT31;59999;51.676;22.650;2023-07-30T14:56:02;25.78;51.02
72126;SHT31;59999;51.676;22.650;2023-07-30T14:58:29;25.65;52.07
72126;SHT31;59999;51.676;22.650;2023-07-30T15:00:55;25.54;53.03
72126;SHT31;59999;51.676;22.650;2023-07-30T15:03:21;25.35;52.02
72126;SHT31;59999;51.676;22.650;2023-07-30T15:05:46;25.30;53.34
72126;SHT31;59999;51.676;22.650;2023-07-30T15:08:13;25.23;52.42
72126;SHT31;59999;51.676;22.650;2023-07-30T15:10:39;25.15;52.34
72126;SHT31;59999;51.676;22.650;2023-07-30T15:13:05;25.11;52.91
72126;SHT31;59999;51.676;22.650;2023-07-30T15:15:30;25.14;53.09
72126;SHT31;59999;51.676;22.650;2023-07-30T15:17:58;25.25;52.92